Pope Air Force Base
KPOB : now visible

Airfield :











YOU CAN JOIN US ON...

 
LOGIN :

Register | Disclaimer

   EN    FR    IT 

 









Legend :    VFR   Marginal VFR   IFR   Intensive IFR   Very Intensive IFR
Visi :
Ceiling :
>= 8 km
>= 3000ft
5 to 8 km
1000 to 3000 ft
1500m to 5 km
500 to 1000 ft
800 to 1500m
200 to 500 ft
< 800m
< 200 ft
Symbols :   Thunderstorms  Fog  Heavy snow  Heavy precipitations  Wind > 20 kt






- Airport Elevation : 217 ft


KPOB - Pope Air Force Base

CURRENT METAR :
  • 191655Z AUTO 07003KT 10SM -RA FEW018 BKN070 OVC085 24/21 A3008 RMK AO2 DZB30E36RAB36 SLP187 P0000 T02410208 $

EXPIRED METARs :
  • 191630Z AUTO 04004KT 10SM -DZ OVC070 24/21 A3008 RMK AO2 DZB30 SLP187 $
  • 191555Z AUTO 09004KT 10SM FEW019 SCT026 BKN070 OVC085 24/20 A3008 RMK AO2 DZE00DZB28E40 SLP187 P0000 T02380203 $
  • 191540Z AUTO 04003KT 10SM SCT025 BKN070 OVC085 24/21 A3009 RMK AO2 DZE00DZB28E40 SLP191 $
  • 191528Z AUTO 01004KT 10SM -DZ FEW025 BKN085 BKN110 24/20 A3009 RMK AO2 DZE00DZB28 SLP191 $
  • 191500Z AUTO 07004KT 10SM FEW110 23/20 A3007 RMK AO2 DZE00 SLP184 $
  • 191357Z AUTO 06003KT 10SM -DZ BKN100 BKN120 22/19 A3008 RMK AO2 DZB57 SLP187 $

TAF TAF KPOB
Valid from the 18 at 17:00 until the 19 at 23:00 UTC


181705Z 1817/1923 12005KT 9999 SCT040 SCT100 SCT250 QNH2991INS
BECMG 1907/1908 08005KT 9999 FEW050 BKN100 OVC200 QNH3000INS
BECMG 1916/1917 11007KT 8000 -SHRA SCT012 BKN018 BKN080 OVC120 QNH3004INS
BECMG 1918/1919 11007KT 6000 -RA BR BKN005 OVC010 QNH3004INS
TEMPO 1919/1923 17013G22KT 2400 SHRA VCTS BKN005 BKN015CB OVC030 TX30/1820Z TN19/1911Z LAST NO AMDS AFT 1822 NEXT 1917
KZDC FIR / North America



MET'MAP, your aeronautical weather chart ! - Copyright ORBIFLY December 2007 - Disclaimer

ORBIFLY MET'MAP TEAM :

Programming & Development : Alexandra Zaïnal
Original concept : Baudouin d'Aumeries
Technical & hardware support : Manuel Goepfert
Assistance : Marc-Olivier Méhu




SOURCES & CREDITS :

   NOAA       Earth
Advisory